sensor_id;sensor_type;location;lat;lon;timestamp;P1;durP1;ratioP1;P2;durP2;ratioP2
52564;SDS011;38460;53.106;7.004;2023-09-07T00:01:43;9.63;;;3.42;;
52564;SDS011;38460;53.106;7.004;2023-09-07T00:04:09;5.07;;;3.50;;
52564;SDS011;38460;53.106;7.004;2023-09-07T00:06:35;5.18;;;3.58;;
52564;SDS011;38460;53.106;7.004;2023-09-07T00:09:02;6.53;;;3.40;;
52564;SDS011;38460;53.106;7.004;2023-09-07T00:11:28;4.85;;;3.30;;
52564;SDS011;38460;53.106;7.004;2023-09-07T00:13:54;6.05;;;3.78;;
52564;SDS011;38460;53.106;7.004;2023-09-07T00:16:20;5.22;;;3.65;;
52564;SDS011;38460;53.106;7.004;2023-09-07T00:18:45;5.13;;;3.30;;
52564;SDS011;38460;53.106;7.004;2023-09-07T00:21:11;4.43;;;3.40;;
52564;SDS011;38460;53.106;7.004;2023-09-07T00:23:37;5.03;;;3.63;;
52564;SDS011;38460;53.106;7.004;2023-09-07T00:26:04;3.20;;;2.90;;
52564;SDS011;38460;53.106;7.004;2023-09-07T00:28:30;5.25;;;3.60;;
52564;SDS011;38460;53.106;7.004;2023-09-07T00:30:56;4.88;;;3.30;;
52564;SDS011;38460;53.106;7.004;2023-09-07T00:33:21;4.38;;;3.45;;
52564;SDS011;38460;53.106;7.004;2023-09-07T00:35:47;4.90;;;3.45;;
52564;SDS011;38460;53.106;7.004;2023-09-07T00:38:13;5.45;;;3.15;;
52564;SDS011;38460;53.106;7.004;2023-09-07T00:40:42;9.30;;;3.50;;
52564;SDS011;38460;53.106;7.004;2023-09-07T00:43:09;5.50;;;3.83;;
52564;SDS011;38460;53.106;7.004;2023-09-07T00:45:35;6.40;;;3.55;;
52564;SDS011;38460;53.106;7.004;2023-09-07T00:48:01;6.55;;;3.92;;
52564;SDS011;38460;53.106;7.004;2023-09-07T00:50:27;6.45;;;4.15;;
52564;SDS011;38460;53.106;7.004;2023-09-07T00:52:53;6.75;;;3.35;;
52564;SDS011;38460;53.106;7.004;2023-09-07T00:55:19;6.57;;;3.85;;
52564;SDS011;38460;53.106;7.004;2023-09-07T00:57:46;4.07;;;3.45;;
52564;SDS011;38460;53.106;7.004;2023-09-07T01:00:12;6.35;;;3.72;;
52564;SDS011;38460;53.106;7.004;2023-09-07T01:02:38;4.78;;;3.67;;
52564;SDS011;38460;53.106;7.004;2023-09-07T01:05:04;4.05;;;3.38;;
52564;SDS011;38460;53.106;7.004;2023-09-07T01:07:40;5.75;;;4.00;;
52564;SDS011;38460;53.106;7.004;2023-09-07T01:10:16;5.07;;;3.63;;
52564;SDS011;38460;53.106;7.004;2023-09-07T01:12:43;5.53;;;3.63;;
52564;SDS011;38460;53.106;7.004;2023-09-07T01:15:09;4.75;;;3.65;;
52564;SDS011;38460;53.106;7.004;2023-09-07T01:17:35;6.43;;;4.00;;
52564;SDS011;38460;53.106;7.004;2023-09-07T01:20:03;6.25;;;4.05;;
52564;SDS011;38460;53.106;7.004;2023-09-07T01:22:36;5.05;;;3.72;;
52564;SDS011;38460;53.106;7.004;2023-09-07T01:25:03;5.18;;;4.03;;
52564;SDS011;38460;53.106;7.004;2023-09-07T01:27:32;4.85;;;3.83;;
52564;SDS011;38460;53.106;7.004;2023-09-07T01:29:58;5.75;;;4.07;;
52564;SDS011;38460;53.106;7.004;2023-09-07T01:32:24;6.38;;;4.00;;
52564;SDS011;38460;53.106;7.004;2023-09-07T01:34:52;5.22;;;3.92;;
52564;SDS011;38460;53.106;7.004;2023-09-07T01:37:22;4.63;;;3.70;;
52564;SDS011;38460;53.106;7.004;2023-09-07T01:39:47;7.35;;;4.32;;
52564;SDS011;38460;53.106;7.004;2023-09-07T01:42:14;6.50;;;4.32;;
52564;SDS011;38460;53.106;7.004;2023-09-07T01:44:39;8.63;;;4.68;;
52564;SDS011;38460;53.106;7.004;2023-09-07T01:47:05;6.45;;;4.50;;
52564;SDS011;38460;53.106;7.004;2023-09-07T01:49:31;6.35;;;4.20;;
52564;SDS011;38460;53.106;7.004;2023-09-07T01:51:57;5.50;;;4.03;;
52564;SDS011;38460;53.106;7.004;2023-09-07T01:54:23;5.82;;;3.95;;
52564;SDS011;38460;53.106;7.004;2023-09-07T01:56:48;5.68;;;4.25;;
52564;SDS011;38460;53.106;7.004;2023-09-07T01:59:14;6.65;;;4.80;;
52564;SDS011;38460;53.106;7.004;2023-09-07T02:01:40;5.40;;;4.03;;
52564;SDS011;38460;53.106;7.004;2023-09-07T02:04:05;7.53;;;4.00;;
52564;SDS011;38460;53.106;7.004;2023-09-07T02:06:31;7.35;;;4.20;;
52564;SDS011;38460;53.106;7.004;2023-09-07T02:08:57;5.03;;;4.30;;
52564;SDS011;38460;53.106;7.004;2023-09-07T02:11:23;7.38;;;4.47;;
52564;SDS011;38460;53.106;7.004;2023-09-07T02:13:48;5.93;;;3.80;;
52564;SDS011;38460;53.106;7.004;2023-09-07T02:16:14;6.35;;;4.15;;
52564;SDS011;38460;53.106;7.004;2023-09-07T02:18:42;6.65;;;4.65;;
52564;SDS011;38460;53.106;7.004;2023-09-07T02:21:11;6.75;;;4.72;;
52564;SDS011;38460;53.106;7.004;2023-09-07T02:23:37;5.90;;;4.40;;
52564;SDS011;38460;53.106;7.004;2023-09-07T02:26:03;5.38;;;4.50;;
52564;SDS011;38460;53.106;7.004;2023-09-07T02:28:29;7.03;;;4.32;;
52564;SDS011;38460;53.106;7.004;2023-09-07T02:31:01;6.32;;;4.70;;
52564;SDS011;38460;53.106;7.004;2023-09-07T02:33:28;6.28;;;4.35;;
52564;SDS011;38460;53.106;7.004;2023-09-07T02:35:54;7.70;;;4.32;;
52564;SDS011;38460;53.106;7.004;2023-09-07T02:38:20;7.93;;;5.10;;
52564;SDS011;38460;53.106;7.004;2023-09-07T02:40:45;7.25;;;4.50;;
52564;SDS011;38460;53.106;7.004;2023-09-07T02:43:11;6.78;;;4.65;;
52564;SDS011;38460;53.106;7.004;2023-09-07T02:45:37;7.97;;;4.95;;
52564;SDS011;38460;53.106;7.004;2023-09-07T02:48:04;4.97;;;4.00;;
52564;SDS011;38460;53.106;7.004;2023-09-07T02:50:31;6.97;;;4.60;;
52564;SDS011;38460;53.106;7.004;2023-09-07T02:52:58;5.43;;;4.22;;
52564;SDS011;38460;53.106;7.004;2023-09-07T02:55:25;8.93;;;4.38;;
52564;SDS011;38460;53.106;7.004;2023-09-07T02:57:52;6.35;;;4.50;;
52564;SDS011;38460;53.106;7.004;2023-09-07T03:00:18;5.55;;;4.93;;
52564;SDS011;38460;53.106;7.004;2023-09-07T03:02:44;9.40;;;4.65;;
52564;SDS011;38460;53.106;7.004;2023-09-07T03:05:10;7.05;;;4.75;;
52564;SDS011;38460;53.106;7.004;2023-09-07T03:07:36;8.43;;;5.00;;
52564;SDS011;38460;53.106;7.004;2023-09-07T03:10:02;6.47;;;4.70;;
52564;SDS011;38460;53.106;7.004;2023-09-07T03:12:28;8.05;;;4.88;;
52564;SDS011;38460;53.106;7.004;2023-09-07T03:14:54;7.45;;;5.13;;
52564;SDS011;38460;53.106;7.004;2023-09-07T03:17:20;7.35;;;4.88;;
52564;SDS011;38460;53.106;7.004;2023-09-07T03:19:46;5.80;;;4.65;;
52564;SDS011;38460;53.106;7.004;2023-09-07T03:22:12;7.03;;;5.05;;
52564;SDS011;38460;53.106;7.004;2023-09-07T03:24:38;5.60;;;4.50;;
52564;SDS011;38460;53.106;7.004;2023-09-07T03:27:05;7.18;;;4.82;;
52564;SDS011;38460;53.106;7.004;2023-09-07T03:29:31;5.80;;;4.85;;
52564;SDS011;38460;53.106;7.004;2023-09-07T03:31:59;8.20;;;5.40;;
52564;SDS011;38460;53.106;7.004;2023-09-07T03:34:25;6.28;;;4.78;;
52564;SDS011;38460;53.106;7.004;2023-09-07T03:36:51;6.90;;;5.35;;
52564;SDS011;38460;53.106;7.004;2023-09-07T03:39:16;6.15;;;5.38;;
52564;SDS011;38460;53.106;7.004;2023-09-07T03:41:44;6.03;;;4.72;;
52564;SDS011;38460;53.106;7.004;2023-09-07T03:44:10;10.05;;;5.20;;
52564;SDS011;38460;53.106;7.004;2023-09-07T03:46:36;8.40;;;5.70;;
52564;SDS011;38460;53.106;7.004;2023-09-07T03:49:02;6.68;;;5.07;;
52564;SDS011;38460;53.106;7.004;2023-09-07T03:51:27;6.50;;;5.15;;
52564;SDS011;38460;53.106;7.004;2023-09-07T03:53:53;7.25;;;5.60;;
52564;SDS011;38460;53.106;7.004;2023-09-07T03:56:19;8.15;;;5.38;;
52564;SDS011;38460;53.106;7.004;2023-09-07T03:58:45;8.60;;;5.78;;
52564;SDS011;38460;53.106;7.004;2023-09-07T04:01:12;7.25;;;6.15;;
52564;SDS011;38460;53.106;7.004;2023-09-07T04:03:39;7.80;;;5.90;;
52564;SDS011;38460;53.106;7.004;2023-09-07T04:06:05;6.43;;;5.13;;
52564;SDS011;38460;53.106;7.004;2023-09-07T04:08:31;7.10;;;5.45;;
52564;SDS011;38460;53.106;7.004;2023-09-07T04:10:57;7.63;;;5.75;;
52564;SDS011;38460;53.106;7.004;2023-09-07T04:13:23;7.28;;;5.72;;
52564;SDS011;38460;53.106;7.004;2023-09-07T04:15:49;7.28;;;6.05;;
52564;SDS011;38460;53.106;7.004;2023-09-07T04:18:15;8.10;;;5.85;;
52564;SDS011;38460;53.106;7.004;2023-09-07T04:20:42;8.95;;;6.50;;
52564;SDS011;38460;53.106;7.004;2023-09-07T04:23:08;8.25;;;5.72;;
52564;SDS011;38460;53.106;7.004;2023-09-07T04:25:34;14.15;;;7.30;;
52564;SDS011;38460;53.106;7.004;2023-09-07T04:28:00;8.48;;;6.07;;
52564;SDS011;38460;53.106;7.004;2023-09-07T04:30:26;13.13;;;6.35;;
52564;SDS011;38460;53.106;7.004;2023-09-07T04:32:52;7.15;;;6.10;;
52564;SDS011;38460;53.106;7.004;2023-09-07T04:35:17;9.40;;;6.15;;
52564;SDS011;38460;53.106;7.004;2023-09-07T04:37:43;9.43;;;6.40;;
52564;SDS011;38460;53.106;7.004;2023-09-07T04:40:10;8.57;;;6.97;;
52564;SDS011;38460;53.106;7.004;2023-09-07T04:42:36;8.80;;;6.13;;
52564;SDS011;38460;53.106;7.004;2023-09-07T04:45:05;9.55;;;6.32;;
52564;SDS011;38460;53.106;7.004;2023-09-07T04:47:31;9.18;;;6.35;;
52564;SDS011;38460;53.106;7.004;2023-09-07T04:49:57;9.65;;;6.72;;
52564;SDS011;38460;53.106;7.004;2023-09-07T04:52:23;7.70;;;6.20;;
52564;SDS011;38460;53.106;7.004;2023-09-07T04:54:49;10.15;;;6.35;;
52564;SDS011;38460;53.106;7.004;2023-09-07T04:57:18;9.65;;;6.35;;
52564;SDS011;38460;53.106;7.004;2023-09-07T04:59:43;10.15;;;7.55;;
52564;SDS011;38460;53.106;7.004;2023-09-07T05:02:09;7.43;;;6.20;;
52564;SDS011;38460;53.106;7.004;2023-09-07T05:04:36;8.90;;;7.15;;
52564;SDS011;38460;53.106;7.004;2023-09-07T05:07:03;9.38;;;6.90;;
52564;SDS011;38460;53.106;7.004;2023-09-07T05:09:28;10.30;;;7.38;;
52564;SDS011;38460;53.106;7.004;2023-09-07T05:11:55;8.40;;;6.38;;
52564;SDS011;38460;53.106;7.004;2023-09-07T05:14:21;7.72;;;6.15;;
52564;SDS011;38460;53.106;7.004;2023-09-07T05:16:50;10.65;;;7.18;;
52564;SDS011;38460;53.106;7.004;2023-09-07T05:19:16;8.23;;;6.70;;
52564;SDS011;38460;53.106;7.004;2023-09-07T05:21:42;8.45;;;6.82;;
52564;SDS011;38460;53.106;7.004;2023-09-07T05:24:08;9.40;;;6.70;;
52564;SDS011;38460;53.106;7.004;2023-09-07T05:26:33;8.73;;;6.57;;
52564;SDS011;38460;53.106;7.004;2023-09-07T05:28:59;7.90;;;6.47;;
52564;SDS011;38460;53.106;7.004;2023-09-07T05:31:25;8.25;;;7.22;;
52564;SDS011;38460;53.106;7.004;2023-09-07T05:33:52;7.25;;;6.30;;
52564;SDS011;38460;53.106;7.004;2023-09-07T05:36:18;8.90;;;6.68;;
52564;SDS011;38460;53.106;7.004;2023-09-07T05:38:43;9.38;;;7.20;;
52564;SDS011;38460;53.106;7.004;2023-09-07T05:41:09;9.60;;;7.47;;
52564;SDS011;38460;53.106;7.004;2023-09-07T05:43:35;9.38;;;7.72;;
52564;SDS011;38460;53.106;7.004;2023-09-07T05:46:01;10.85;;;7.55;;
52564;SDS011;38460;53.106;7.004;2023-09-07T05:48:27;8.93;;;6.80;;
52564;SDS011;38460;53.106;7.004;2023-09-07T05:50:53;7.70;;;6.13;;
52564;SDS011;38460;53.106;7.004;2023-09-07T05:53:19;15.35;;;6.80;;
52564;SDS011;38460;53.106;7.004;2023-09-07T05:55:49;9.52;;;6.60;;
52564;SDS011;38460;53.106;7.004;2023-09-07T05:58:15;12.63;;;8.10;;
52564;SDS011;38460;53.106;7.004;2023-09-07T06:00:41;8.77;;;7.07;;
52564;SDS011;38460;53.106;7.004;2023-09-07T06:03:07;9.02;;;6.88;;
52564;SDS011;38460;53.106;7.004;2023-09-07T06:05:34;13.80;;;7.63;;
52564;SDS011;38460;53.106;7.004;2023-09-07T06:08:01;9.82;;;7.10;;
52564;SDS011;38460;53.106;7.004;2023-09-07T06:10:30;9.25;;;7.82;;
52564;SDS011;38460;53.106;7.004;2023-09-07T06:12:56;10.65;;;7.20;;
52564;SDS011;38460;53.106;7.004;2023-09-07T06:15:22;11.05;;;7.15;;
52564;SDS011;38460;53.106;7.004;2023-09-07T06:17:48;12.73;;;7.30;;
52564;SDS011;38460;53.106;7.004;2023-09-07T06:20:15;11.15;;;7.30;;
52564;SDS011;38460;53.106;7.004;2023-09-07T06:22:41;9.40;;;7.30;;
52564;SDS011;38460;53.106;7.004;2023-09-07T06:25:07;9.38;;;6.72;;
52564;SDS011;38460;53.106;7.004;2023-09-07T06:27:33;12.32;;;8.63;;
52564;SDS011;38460;53.106;7.004;2023-09-07T06:29:59;15.93;;;7.18;;
52564;SDS011;38460;53.106;7.004;2023-09-07T06:32:24;10.88;;;7.97;;
52564;SDS011;38460;53.106;7.004;2023-09-07T06:34:50;9.02;;;7.63;;
52564;SDS011;38460;53.106;7.004;2023-09-07T06:37:16;10.82;;;7.88;;
52564;SDS011;38460;53.106;7.004;2023-09-07T06:39:43;11.32;;;7.75;;
52564;SDS011;38460;53.106;7.004;2023-09-07T06:42:09;11.13;;;7.28;;
52564;SDS011;38460;53.106;7.004;2023-09-07T06:44:35;10.35;;;8.07;;
52564;SDS011;38460;53.106;7.004;2023-09-07T06:47:01;9.98;;;7.40;;
52564;SDS011;38460;53.106;7.004;2023-09-07T06:49:27;11.50;;;7.18;;
52564;SDS011;38460;53.106;7.004;2023-09-07T06:51:55;9.65;;;7.72;;
52564;SDS011;38460;53.106;7.004;2023-09-07T06:54:21;8.70;;;7.18;;
52564;SDS011;38460;53.106;7.004;2023-09-07T06:56:47;11.30;;;7.32;;
52564;SDS011;38460;53.106;7.004;2023-09-07T06:59:13;12.70;;;8.07;;
52564;SDS011;38460;53.106;7.004;2023-09-07T07:01:39;10.60;;;7.65;;
52564;SDS011;38460;53.106;7.004;2023-09-07T07:04:05;10.57;;;7.57;;
52564;SDS011;38460;53.106;7.004;2023-09-07T07:06:31;11.30;;;7.78;;
52564;SDS011;38460;53.106;7.004;2023-09-07T07:08:57;12.68;;;7.88;;
52564;SDS011;38460;53.106;7.004;2023-09-07T07:11:23;12.30;;;7.68;;
52564;SDS011;38460;53.106;7.004;2023-09-07T07:13:49;10.95;;;7.13;;
52564;SDS011;38460;53.106;7.004;2023-09-07T07:16:15;10.77;;;7.78;;
52564;SDS011;38460;53.106;7.004;2023-09-07T07:18:42;13.05;;;7.45;;
52564;SDS011;38460;53.106;7.004;2023-09-07T07:21:07;10.85;;;7.68;;
52564;SDS011;38460;53.106;7.004;2023-09-07T07:23:34;9.85;;;7.63;;
52564;SDS011;38460;53.106;7.004;2023-09-07T07:26:01;10.95;;;7.82;;
52564;SDS011;38460;53.106;7.004;2023-09-07T07:28:27;12.93;;;7.30;;
52564;SDS011;38460;53.106;7.004;2023-09-07T07:30:52;10.63;;;7.55;;
52564;SDS011;38460;53.106;7.004;2023-09-07T07:33:19;10.63;;;7.00;;
52564;SDS011;38460;53.106;7.004;2023-09-07T07:35:45;11.75;;;7.38;;
52564;SDS011;38460;53.106;7.004;2023-09-07T07:38:11;11.13;;;6.82;;
52564;SDS011;38460;53.106;7.004;2023-09-07T07:40:39;8.80;;;7.20;;
52564;SDS011;38460;53.106;7.004;2023-09-07T07:43:05;13.27;;;6.72;;
52564;SDS011;38460;53.106;7.004;2023-09-07T07:45:31;11.32;;;7.75;;
52564;SDS011;38460;53.106;7.004;2023-09-07T07:48:01;9.45;;;7.07;;
52564;SDS011;38460;53.106;7.004;2023-09-07T07:50:30;10.88;;;6.97;;
52564;SDS011;38460;53.106;7.004;2023-09-07T07:52:56;9.73;;;6.88;;
52564;SDS011;38460;53.106;7.004;2023-09-07T07:55:22;10.07;;;6.60;;
52564;SDS011;38460;53.106;7.004;2023-09-07T07:57:48;11.68;;;7.22;;
52564;SDS011;38460;53.106;7.004;2023-09-07T08:00:13;10.55;;;6.40;;
52564;SDS011;38460;53.106;7.004;2023-09-07T08:02:39;9.10;;;6.70;;
52564;SDS011;38460;53.106;7.004;2023-09-07T08:05:05;10.30;;;6.55;;
52564;SDS011;38460;53.106;7.004;2023-09-07T08:07:31;10.18;;;6.65;;
52564;SDS011;38460;53.106;7.004;2023-09-07T08:09:57;8.52;;;6.78;;
52564;SDS011;38460;53.106;7.004;2023-09-07T08:12:23;8.45;;;5.82;;
52564;SDS011;38460;53.106;7.004;2023-09-07T08:14:48;7.82;;;5.60;;
52564;SDS011;38460;53.106;7.004;2023-09-07T08:17:14;10.68;;;6.05;;
52564;SDS011;38460;53.106;7.004;2023-09-07T08:19:40;10.38;;;6.65;;
52564;SDS011;38460;53.106;7.004;2023-09-07T08:22:06;10.27;;;5.60;;
52564;SDS011;38460;53.106;7.004;2023-09-07T08:24:32;12.35;;;5.38;;
52564;SDS011;38460;53.106;7.004;2023-09-07T08:26:58;10.75;;;5.80;;
52564;SDS011;38460;53.106;7.004;2023-09-07T08:29:25;10.50;;;5.78;;
52564;SDS011;38460;53.106;7.004;2023-09-07T08:31:54;8.30;;;6.03;;
52564;SDS011;38460;53.106;7.004;2023-09-07T08:34:20;7.88;;;5.90;;
52564;SDS011;38460;53.106;7.004;2023-09-07T08:36:47;8.38;;;6.22;;
52564;SDS011;38460;53.106;7.004;2023-09-07T08:39:15;6.55;;;5.40;;
52564;SDS011;38460;53.106;7.004;2023-09-07T08:41:44;7.47;;;5.57;;
52564;SDS011;38460;53.106;7.004;2023-09-07T08:44:11;7.57;;;5.93;;
52564;SDS011;38460;53.106;7.004;2023-09-07T08:46:39;7.60;;;5.50;;
52564;SDS011;38460;53.106;7.004;2023-09-07T08:49:06;7.38;;;5.22;;
52564;SDS011;38460;53.106;7.004;2023-09-07T08:51:34;6.05;;;5.22;;
52564;SDS011;38460;53.106;7.004;2023-09-07T08:54:04;7.10;;;5.43;;
52564;SDS011;38460;53.106;7.004;2023-09-07T08:56:32;9.30;;;5.57;;
52564;SDS011;38460;53.106;7.004;2023-09-07T08:58:58;7.75;;;5.45;;
52564;SDS011;38460;53.106;7.004;2023-09-07T09:01:24;7.05;;;5.53;;
52564;SDS011;38460;53.106;7.004;2023-09-07T09:03:50;7.55;;;5.13;;
52564;SDS011;38460;53.106;7.004;2023-09-07T09:06:17;7.22;;;5.60;;
52564;SDS011;38460;53.106;7.004;2023-09-07T09:08:47;8.38;;;5.40;;
52564;SDS011;38460;53.106;7.004;2023-09-07T09:11:15;7.53;;;5.73;;
52564;SDS011;38460;53.106;7.004;2023-09-07T09:13:44;5.70;;;4.85;;
52564;SDS011;38460;53.106;7.004;2023-09-07T09:16:10;8.98;;;5.70;;
52564;SDS011;38460;53.106;7.004;2023-09-07T09:18:38;6.22;;;5.35;;
52564;SDS011;38460;53.106;7.004;2023-09-07T09:21:13;8.07;;;5.55;;
52564;SDS011;38460;53.106;7.004;2023-09-07T09:23:40;7.50;;;4.60;;
52564;SDS011;38460;53.106;7.004;2023-09-07T09:26:06;7.95;;;5.15;;
52564;SDS011;38460;53.106;7.004;2023-09-07T09:28:32;7.20;;;4.82;;
52564;SDS011;38460;53.106;7.004;2023-09-07T09:30:59;6.57;;;5.03;;
52564;SDS011;38460;53.106;7.004;2023-09-07T09:33:26;7.22;;;5.22;;
52564;SDS011;38460;53.106;7.004;2023-09-07T09:35:53;7.28;;;4.88;;
52564;SDS011;38460;53.106;7.004;2023-09-07T09:38:20;6.55;;;4.60;;
52564;SDS011;38460;53.106;7.004;2023-09-07T09:40:45;7.97;;;5.15;;
52564;SDS011;38460;53.106;7.004;2023-09-07T09:43:12;8.02;;;5.25;;
52564;SDS011;38460;53.106;7.004;2023-09-07T09:45:38;7.05;;;4.93;;
52564;SDS011;38460;53.106;7.004;2023-09-07T09:48:05;9.00;;;4.75;;
52564;SDS011;38460;53.106;7.004;2023-09-07T09:50:31;7.35;;;4.55;;
52564;SDS011;38460;53.106;7.004;2023-09-07T09:53:03;7.65;;;5.18;;
52564;SDS011;38460;53.106;7.004;2023-09-07T09:55:32;7.25;;;5.38;;
52564;SDS011;38460;53.106;7.004;2023-09-07T09:57:59;6.43;;;5.32;;
52564;SDS011;38460;53.106;7.004;2023-09-07T10:00:24;5.88;;;4.47;;
52564;SDS011;38460;53.106;7.004;2023-09-07T10:05:40;9.35;;;4.72;;
52564;SDS011;38460;53.106;7.004;2023-09-07T10:08:11;5.78;;;3.70;;
52564;SDS011;38460;53.106;7.004;2023-09-07T10:10:38;5.00;;;4.20;;
52564;SDS011;38460;53.106;7.004;2023-09-07T10:13:07;6.40;;;4.80;;
52564;SDS011;38460;53.106;7.004;2023-09-07T10:15:33;5.45;;;4.25;;
52564;SDS011;38460;53.106;7.004;2023-09-07T10:18:11;7.13;;;4.55;;
52564;SDS011;38460;53.106;7.004;2023-09-07T10:20:57;6.28;;;4.63;;
52564;SDS011;38460;53.106;7.004;2023-09-07T10:23:34;7.47;;;4.60;;
52564;SDS011;38460;53.106;7.004;2023-09-07T10:26:02;6.85;;;4.55;;
52564;SDS011;38460;53.106;7.004;2023-09-07T10:28:31;7.30;;;4.63;;
52564;SDS011;38460;53.106;7.004;2023-09-07T10:30:58;5.13;;;3.85;;
52564;SDS011;38460;53.106;7.004;2023-09-07T10:33:25;6.10;;;4.28;;
52564;SDS011;38460;53.106;7.004;2023-09-07T10:35:51;6.78;;;4.45;;
52564;SDS011;38460;53.106;7.004;2023-09-07T10:38:17;4.78;;;3.75;;
52564;SDS011;38460;53.106;7.004;2023-09-07T10:40:43;6.03;;;4.22;;
52564;SDS011;38460;53.106;7.004;2023-09-07T10:43:13;6.05;;;4.05;;
52564;SDS011;38460;53.106;7.004;2023-09-07T10:45:38;5.10;;;3.60;;
52564;SDS011;38460;53.106;7.004;2023-09-07T10:48:05;5.95;;;4.32;;
52564;SDS011;38460;53.106;7.004;2023-09-07T10:50:41;4.97;;;3.83;;
52564;SDS011;38460;53.106;7.004;2023-09-07T10:53:14;5.28;;;3.83;;
52564;SDS011;38460;53.106;7.004;2023-09-07T10:55:49;5.30;;;4.13;;
52564;SDS011;38460;53.106;7.004;2023-09-07T10:58:23;6.00;;;3.85;;
52564;SDS011;38460;53.106;7.004;2023-09-07T11:00:53;5.38;;;4.15;;
52564;SDS011;38460;53.106;7.004;2023-09-07T11:03:19;8.43;;;3.88;;
52564;SDS011;38460;53.106;7.004;2023-09-07T11:05:45;4.88;;;4.07;;
52564;SDS011;38460;53.106;7.004;2023-09-07T11:08:12;5.35;;;3.90;;
52564;SDS011;38460;53.106;7.004;2023-09-07T11:10:38;5.20;;;3.55;;
52564;SDS011;38460;53.106;7.004;2023-09-07T11:13:04;4.72;;;3.90;;
52564;SDS011;38460;53.106;7.004;2023-09-07T11:15:31;7.32;;;3.80;;
52564;SDS011;38460;53.106;7.004;2023-09-07T11:18:03;8.10;;;4.82;;
52564;SDS011;38460;53.106;7.004;2023-09-07T11:20:30;5.80;;;3.80;;
52564;SDS011;38460;53.106;7.004;2023-09-07T11:22:56;5.28;;;3.90;;
52564;SDS011;38460;53.106;7.004;2023-09-07T11:25:22;5.57;;;3.90;;
52564;SDS011;38460;53.106;7.004;2023-09-07T11:27:48;6.43;;;3.97;;
52564;SDS011;38460;53.106;7.004;2023-09-07T11:30:14;5.50;;;4.07;;
52564;SDS011;38460;53.106;7.004;2023-09-07T11:32:39;5.55;;;4.50;;
52564;SDS011;38460;53.106;7.004;2023-09-07T11:35:09;5.47;;;4.13;;
52564;SDS011;38460;53.106;7.004;2023-09-07T11:37:35;5.57;;;4.20;;
52564;SDS011;38460;53.106;7.004;2023-09-07T11:40:01;5.20;;;3.80;;
52564;SDS011;38460;53.106;7.004;2023-09-07T11:42:29;8.73;;;4.47;;
52564;SDS011;38460;53.106;7.004;2023-09-07T11:44:55;5.15;;;4.05;;
52564;SDS011;38460;53.106;7.004;2023-09-07T11:47:21;6.35;;;4.00;;
52564;SDS011;38460;53.106;7.004;2023-09-07T11:49:46;5.25;;;3.58;;
52564;SDS011;38460;53.106;7.004;2023-09-07T11:52:14;9.15;;;4.30;;
52564;SDS011;38460;53.106;7.004;2023-09-07T11:54:39;7.07;;;4.05;;
52564;SDS011;38460;53.106;7.004;2023-09-07T11:57:05;5.75;;;3.85;;
52564;SDS011;38460;53.106;7.004;2023-09-07T11:59:31;7.07;;;4.05;;
52564;SDS011;38460;53.106;7.004;2023-09-07T12:01:57;4.70;;;3.90;;
52564;SDS011;38460;53.106;7.004;2023-09-07T12:04:23;6.65;;;4.10;;
52564;SDS011;38460;53.106;7.004;2023-09-07T12:06:49;8.32;;;4.18;;
52564;SDS011;38460;53.106;7.004;2023-09-07T12:09:15;5.60;;;4.18;;
52564;SDS011;38460;53.106;7.004;2023-09-07T12:11:42;6.32;;;3.72;;
52564;SDS011;38460;53.106;7.004;2023-09-07T12:14:08;5.47;;;3.95;;
52564;SDS011;38460;53.106;7.004;2023-09-07T12:16:34;6.53;;;3.72;;
52564;SDS011;38460;53.106;7.004;2023-09-07T12:19:00;5.30;;;3.45;;
52564;SDS011;38460;53.106;7.004;2023-09-07T12:21:25;5.57;;;3.67;;
52564;SDS011;38460;53.106;7.004;2023-09-07T12:23:51;6.03;;;3.65;;
52564;SDS011;38460;53.106;7.004;2023-09-07T12:26:17;6.57;;;3.65;;
52564;SDS011;38460;53.106;7.004;2023-09-07T12:28:45;5.90;;;3.58;;
52564;SDS011;38460;53.106;7.004;2023-09-07T12:31:12;8.75;;;3.95;;
52564;SDS011;38460;53.106;7.004;2023-09-07T12:33:39;8.80;;;3.70;;
52564;SDS011;38460;53.106;7.004;2023-09-07T12:36:04;7.80;;;4.15;;
52564;SDS011;38460;53.106;7.004;2023-09-07T12:38:34;5.53;;;3.70;;
52564;SDS011;38460;53.106;7.004;2023-09-07T12:41:00;5.22;;;3.83;;
52564;SDS011;38460;53.106;7.004;2023-09-07T12:43:25;6.20;;;3.72;;
52564;SDS011;38460;53.106;7.004;2023-09-07T12:45:51;6.13;;;3.58;;
52564;SDS011;38460;53.106;7.004;2023-09-07T12:48:17;5.03;;;3.80;;
52564;SDS011;38460;53.106;7.004;2023-09-07T12:50:44;5.22;;;3.80;;
52564;SDS011;38460;53.106;7.004;2023-09-07T12:53:09;6.55;;;3.63;;
52564;SDS011;38460;53.106;7.004;2023-09-07T12:55:35;4.40;;;3.38;;
52564;SDS011;38460;53.106;7.004;2023-09-07T12:58:01;5.07;;;3.75;;
52564;SDS011;38460;53.106;7.004;2023-09-07T13:00:27;4.75;;;3.75;;
52564;SDS011;38460;53.106;7.004;2023-09-07T13:02:54;5.93;;;3.88;;
52564;SDS011;38460;53.106;7.004;2023-09-07T13:05:21;5.75;;;3.30;;
52564;SDS011;38460;53.106;7.004;2023-09-07T13:07:46;6.15;;;3.75;;
52564;SDS011;38460;53.106;7.004;2023-09-07T13:10:13;8.13;;;4.00;;
52564;SDS011;38460;53.106;7.004;2023-09-07T13:12:40;5.43;;;3.55;;
52564;SDS011;38460;53.106;7.004;2023-09-07T13:15:06;5.30;;;3.70;;
52564;SDS011;38460;53.106;7.004;2023-09-07T13:17:32;6.03;;;3.97;;
52564;SDS011;38460;53.106;7.004;2023-09-07T13:19:58;7.15;;;3.70;;
52564;SDS011;38460;53.106;7.004;2023-09-07T13:22:24;5.78;;;3.90;;
52564;SDS011;38460;53.106;7.004;2023-09-07T13:24:50;4.03;;;3.30;;
52564;SDS011;38460;53.106;7.004;2023-09-07T13:27:15;4.85;;;3.60;;
52564;SDS011;38460;53.106;7.004;2023-09-07T13:29:41;5.40;;;3.40;;
52564;SDS011;38460;53.106;7.004;2023-09-07T13:32:07;4.20;;;3.17;;
52564;SDS011;38460;53.106;7.004;2023-09-07T13:34:33;6.15;;;4.00;;
52564;SDS011;38460;53.106;7.004;2023-09-07T13:36:59;9.25;;;3.45;;
52564;SDS011;38460;53.106;7.004;2023-09-07T13:39:25;3.78;;;3.05;;
52564;SDS011;38460;53.106;7.004;2023-09-07T13:41:50;4.30;;;3.33;;
52564;SDS011;38460;53.106;7.004;2023-09-07T13:44:16;6.47;;;3.58;;
52564;SDS011;38460;53.106;7.004;2023-09-07T13:46:45;5.32;;;3.55;;
52564;SDS011;38460;53.106;7.004;2023-09-07T13:49:11;4.40;;;3.47;;
52564;SDS011;38460;53.106;7.004;2023-09-07T13:51:37;4.60;;;3.10;;
52564;SDS011;38460;53.106;7.004;2023-09-07T13:54:05;4.45;;;3.20;;
52564;SDS011;38460;53.106;7.004;2023-09-07T13:56:31;6.35;;;3.50;;
52564;SDS011;38460;53.106;7.004;2023-09-07T13:58:58;6.00;;;3.80;;
52564;SDS011;38460;53.106;7.004;2023-09-07T14:01:24;7.32;;;3.80;;
52564;SDS011;38460;53.106;7.004;2023-09-07T14:03:50;4.85;;;3.50;;
52564;SDS011;38460;53.106;7.004;2023-09-07T14:06:16;4.32;;;3.03;;
52564;SDS011;38460;53.106;7.004;2023-09-07T14:08:43;5.30;;;3.40;;
52564;SDS011;38460;53.106;7.004;2023-09-07T14:11:10;3.67;;;3.20;;
52564;SDS011;38460;53.106;7.004;2023-09-07T14:13:35;6.53;;;3.40;;
52564;SDS011;38460;53.106;7.004;2023-09-07T14:16:01;4.78;;;3.58;;
52564;SDS011;38460;53.106;7.004;2023-09-07T14:18:27;6.00;;;3.63;;
52564;SDS011;38460;53.106;7.004;2023-09-07T14:20:53;5.82;;;3.00;;
52564;SDS011;38460;53.106;7.004;2023-09-07T14:23:23;5.00;;;3.53;;
52564;SDS011;38460;53.106;7.004;2023-09-07T14:25:51;4.25;;;3.35;;
52564;SDS011;38460;53.106;7.004;2023-09-07T14:28:17;4.43;;;3.30;;
52564;SDS011;38460;53.106;7.004;2023-09-07T14:30:42;4.72;;;3.50;;
52564;SDS011;38460;53.106;7.004;2023-09-07T14:33:08;4.85;;;3.38;;
52564;SDS011;38460;53.106;7.004;2023-09-07T14:35:34;4.60;;;2.85;;
52564;SDS011;38460;53.106;7.004;2023-09-07T14:38:00;5.78;;;3.00;;
52564;SDS011;38460;53.106;7.004;2023-09-07T14:40:26;5.20;;;3.33;;
52564;SDS011;38460;53.106;7.004;2023-09-07T14:42:52;3.90;;;3.13;;
52564;SDS011;38460;53.106;7.004;2023-09-07T14:45:18;4.95;;;3.03;;